Terminal Aerodrome Forecast
Issued by NWS Central Illinois

Home | Current Version | Previous Version | Text Only | Print | Product List | Glossary On
Versions: 1 2 3 4 5 6 7 8 9 10 11 12 13 14 15
000
FTUS43 KILX 211144
TAFSPI
TAF
KSPI 211144Z 2112/2212 VRB03KT P6SM VCTS SCT050CB BKN200
     FM211600 22005KT P6SM VCSH SCT050 BKN200
     FM212000 19007KT P6SM SCT050 BKN200
     FM220900 22007KT 5SM -SHRA BR VCTS OVC035CB=

USA.gov is the U.S. government's official web portal to all federal, state and local government web resources and services.